Time;durP1;ratioP1;P1;durP2;ratioP2;P2;SDS_P1;SDS_P2;PMS_P1;PMS_P2;Temp;Humidity;BMP_temperature;BMP_pressure;BME280_temperature;BME280_humidity;BME280_pressure;Samples;Min_cycle;Max_cycle;Signal;HPM_P1;HPM_P2
2023/10/30 00:01:48;;;;;;;4.88;1.60;;;9.70;99.90;;;;;;5078967;28;20109;-29
2023/10/30 00:04:14;;;;;;;6.35;1.60;;;9.70;99.90;;;;;;5076039;28;20079;-28
2023/10/30 00:06:40;;;;;;;4.15;1.90;;;9.80;99.90;;;;;;5072013;28;20071;-30
2023/10/30 00:09:06;;;;;;;3.97;1.48;;;9.80;99.90;;;;;;5063163;28;20545;-29
2023/10/30 00:11:31;;;;;;;5.75;2.42;;;9.80;99.90;;;;;;5079231;28;20039;-30
2023/10/30 00:13:57;;;;;;;3.05;1.65;;;9.70;99.90;;;;;;5057012;28;20036;-29
2023/10/30 00:16:23;;;;;;;5.00;1.50;;;9.70;99.90;;;;;;5080312;28;20514;-29
2023/10/30 00:18:49;;;;;;;4.00;2.10;;;9.70;99.90;;;;;;5075809;28;20052;-30
2023/10/30 00:21:15;;;;;;;5.63;1.90;;;9.70;99.90;;;;;;5084909;28;20267;-30
2023/10/30 00:23:41;;;;;;;4.80;1.90;;;9.70;99.90;;;;;;5079671;28;20052;-29
2023/10/30 00:26:07;;;;;;;3.47;1.48;;;9.70;99.90;;;;;;5082972;28;20028;-30
2023/10/30 00:28:34;;;;;;;4.68;1.83;;;9.70;99.90;;;;;;5080536;28;20200;-29
2023/10/30 00:31:00;;;;;;;4.93;1.90;;;9.70;99.90;;;;;;5064865;28;20032;-30
2023/10/30 00:33:26;;;;;;;4.43;1.45;;;9.70;99.90;;;;;;5067457;28;20032;-30
2023/10/30 00:35:52;;;;;;;6.30;1.77;;;9.70;99.90;;;;;;5068813;28;20039;-29
2023/10/30 00:38:18;;;;;;;3.60;1.80;;;9.70;99.90;;;;;;5060509;28;20045;-30
2023/10/30 00:40:43;;;;;;;3.55;1.50;;;9.70;99.90;;;;;;5074868;28;20115;-30
2023/10/30 00:43:10;;;;;;;3.10;1.50;;;9.60;99.90;;;;;;5074055;28;20051;-29
2023/10/30 00:45:36;;;;;;;4.00;1.80;;;9.60;99.90;;;;;;5080607;28;20040;-30
2023/10/30 00:48:01;;;;;;;3.95;1.63;;;9.60;99.90;;;;;;5069679;28;20553;-28
2023/10/30 00:50:27;;;;;;;6.53;1.90;;;9.60;99.90;;;;;;5066446;28;20036;-29
2023/10/30 00:52:53;;;;;;;6.03;1.77;;;9.60;99.90;;;;;;5078838;28;20028;-31
2023/10/30 00:55:18;;;;;;;3.10;1.65;;;9.60;99.90;;;;;;5067377;28;20525;-30
2023/10/30 00:57:44;;;;;;;5.97;1.90;;;9.60;99.90;;;;;;5063517;28;20132;-30
2023/10/30 01:00:11;;;;;;;3.63;1.75;;;9.50;99.90;;;;;;5080923;28;20455;-32
2023/10/30 01:02:36;;;;;;;3.33;1.65;;;9.50;99.90;;;;;;5075347;28;20048;-29
2023/10/30 01:05:02;;;;;;;4.10;1.70;;;9.50;99.90;;;;;;5057588;28;20123;-29
2023/10/30 01:07:28;;;;;;;3.42;2.05;;;9.50;99.90;;;;;;5081851;28;20044;-30
2023/10/30 01:09:56;;;;;;;4.38;2.17;;;9.50;99.90;;;;;;5056474;28;20524;-30
2023/10/30 01:12:21;;;;;;;2.28;1.73;;;9.50;99.90;;;;;;5075155;28;20032;-29
2023/10/30 01:14:48;;;;;;;3.60;1.80;;;9.50;99.90;;;;;;5062204;28;20089;-31
2023/10/30 01:17:13;;;;;;;4.18;1.98;;;9.50;99.90;;;;;;5088527;28;20043;-29
2023/10/30 01:19:39;;;;;;;5.55;1.80;;;9.50;99.90;;;;;;5087757;28;20056;-29
2023/10/30 01:22:05;;;;;;;5.30;1.85;;;9.50;99.90;;;;;;5084401;28;20036;-30
2023/10/30 01:24:32;;;;;;;5.18;2.00;;;9.60;99.90;;;;;;5075953;28;20453;-31
2023/10/30 01:26:59;;;;;;;6.28;2.20;;;9.60;99.90;;;;;;5051009;28;20047;-30
2023/10/30 01:29:25;;;;;;;5.55;1.98;;;9.60;99.90;;;;;;5064924;28;20043;-29
2023/10/30 01:31:51;;;;;;;7.95;2.10;;;9.60;99.90;;;;;;5066904;28;20449;-29
2023/10/30 01:34:16;;;;;;;8.82;2.90;;;9.60;99.90;;;;;;5081676;28;20039;-30
2023/10/30 01:36:42;;;;;;;6.60;2.40;;;9.60;99.90;;;;;;5062722;28;20126;-30
2023/10/30 01:39:07;;;;;;;6.53;1.75;;;9.60;99.90;;;;;;5081187;28;20490;-29
2023/10/30 01:41:33;;;;;;;6.90;2.13;;;9.60;99.90;;;;;;5080442;28;20037;-29
2023/10/30 01:43:59;;;;;;;3.28;1.83;;;9.60;99.90;;;;;;5058834;28;20411;-30
2023/10/30 01:46:24;;;;;;;5.65;1.80;;;9.60;99.90;;;;;;5079141;28;20079;-30
2023/10/30 01:48:50;;;;;;;7.53;2.20;;;9.60;99.90;;;;;;5057370;28;20082;-29
2023/10/30 01:51:17;;;;;;;7.95;2.13;;;9.60;99.90;;;;;;5074522;28;20057;-29
2023/10/30 01:53:45;;;;;;;6.93;1.95;;;9.60;99.90;;;;;;5078684;28;20102;-29
2023/10/30 01:56:10;;;;;;;7.35;2.08;;;9.60;99.90;;;;;;5062601;28;20040;-29
2023/10/30 01:58:36;;;;;;;8.45;2.20;;;9.60;99.90;;;;;;5071256;28;20036;-29
2023/10/30 02:01:03;;;;;;;6.63;1.90;;;9.60;99.90;;;;;;5058976;28;20098;-30
2023/10/30 02:03:28;;;;;;;7.03;2.58;;;9.60;99.90;;;;;;5077893;28;20076;-30
2023/10/30 02:05:54;;;;;;;6.43;1.95;;;9.60;99.90;;;;;;5060676;28;20075;-29
2023/10/30 02:08:21;;;;;;;7.95;2.28;;;9.60;99.90;;;;;;5080799;28;20040;-30
2023/10/30 02:10:47;;;;;;;7.90;2.50;;;9.60;99.90;;;;;;5075725;28;20052;-28
2023/10/30 02:13:12;;;;;;;7.10;1.98;;;9.60;99.90;;;;;;5056781;28;20137;-29
2023/10/30 02:15:38;;;;;;;8.25;2.20;;;9.60;99.90;;;;;;5075977;28;20051;-29
2023/10/30 02:18:05;;;;;;;5.50;2.20;;;9.60;99.90;;;;;;5072097;28;20036;-29
2023/10/30 02:20:31;;;;;;;8.35;2.35;;;9.70;99.90;;;;;;5076168;28;20041;-29
2023/10/30 02:22:57;;;;;;;13.45;2.72;;;9.70;99.90;;;;;;5060176;28;20047;-29
2023/10/30 02:25:24;;;;;;;6.35;2.10;;;9.70;99.90;;;;;;5077692;28;20028;-29
2023/10/30 02:27:53;;;;;;;6.63;2.20;;;9.80;99.90;;;;;;5073782;28;20376;-29
2023/10/30 02:30:19;;;;;;;10.10;2.25;;;9.80;99.90;;;;;;5077451;28;20190;-28
2023/10/30 02:32:47;;;;;;;6.35;2.22;;;9.90;99.90;;;;;;5074518;28;20040;-29
2023/10/30 02:35:19;;;;;;;8.88;2.30;;;9.90;99.90;;;;;;5072276;28;20449;-30
2023/10/30 02:37:45;;;;;;;8.70;2.20;;;10.00;99.90;;;;;;5057759;28;20182;-29
2023/10/30 02:40:12;;;;;;;11.27;2.35;;;10.00;99.90;;;;;;5058375;28;20045;-30
2023/10/30 02:42:38;;;;;;;7.38;2.03;;;10.00;99.90;;;;;;5077719;28;20415;-28
2023/10/30 02:45:05;;;;;;;4.40;1.67;;;10.00;99.90;;;;;;5079944;28;20040;-30
2023/10/30 02:47:31;;;;;;;7.68;2.05;;;10.00;99.90;;;;;;5081875;28;20044;-30
2023/10/30 02:49:57;;;;;;;8.75;2.38;;;10.00;99.90;;;;;;5077622;28;20028;-29
2023/10/30 02:52:22;;;;;;;6.63;2.45;;;10.10;99.90;;;;;;5086656;28;20032;-29
2023/10/30 02:54:48;;;;;;;7.97;2.20;;;10.10;99.90;;;;;;5077304;28;20441;-29
2023/10/30 02:57:14;;;;;;;9.25;2.25;;;10.10;99.90;;;;;;5082900;28;20036;-29
2023/10/30 02:59:40;;;;;;;7.28;1.90;;;10.10;99.90;;;;;;5067996;28;20074;-29
2023/10/30 03:02:06;;;;;;;10.68;2.30;;;10.10;99.90;;;;;;5082002;28;20037;-29
2023/10/30 03:04:33;;;;;;;5.47;1.88;;;10.00;99.90;;;;;;5080865;28;20129;-30
2023/10/30 03:06:58;;;;;;;6.63;2.45;;;10.00;99.90;;;;;;5059868;28;20040;-30
2023/10/30 03:09:29;;;;;;;8.52;2.58;;;10.00;99.90;;;;;;5063654;28;20036;-29
2023/10/30 03:11:55;;;;;;;6.95;2.45;;;10.00;99.90;;;;;;5070793;28;20047;-29
2023/10/30 03:14:21;;;;;;;7.97;2.20;;;10.00;99.90;;;;;;5075645;28;20510;-29
2023/10/30 03:16:46;;;;;;;7.50;2.08;;;10.00;99.90;;;;;;5078086;28;20036;-28
2023/10/30 03:19:12;;;;;;;7.50;2.17;;;10.00;99.90;;;;;;5063251;28;20037;-29
2023/10/30 03:21:38;;;;;;;7.97;2.60;;;10.00;99.90;;;;;;5063967;28;20123;-29
2023/10/30 03:24:04;;;;;;;7.07;2.05;;;10.00;99.90;;;;;;5088498;28;20040;-29
2023/10/30 03:26:32;;;;;;;9.80;1.90;;;10.00;99.90;;;;;;5089764;28;20107;-29
2023/10/30 03:28:58;;;;;;;6.85;2.10;;;10.00;99.90;;;;;;5081282;28;20070;-29
2023/10/30 03:31:24;;;;;;;7.53;2.47;;;10.00;99.90;;;;;;5061084;28;20036;-29
2023/10/30 03:33:50;;;;;;;7.97;2.25;;;10.00;99.90;;;;;;5080845;28;20522;-29
2023/10/30 03:36:20;;;;;;;8.50;2.25;;;10.00;99.90;;;;;;5077521;28;20087;-30
2023/10/30 03:38:46;;;;;;;7.45;2.38;;;9.90;99.90;;;;;;5069516;28;20480;-30
2023/10/30 03:41:11;;;;;;;7.53;1.70;;;9.90;99.90;;;;;;5076413;28;20051;-30
2023/10/30 03:43:37;;;;;;;7.13;2.30;;;9.90;99.90;;;;;;5077030;28;20072;-30
2023/10/30 03:46:04;;;;;;;7.63;1.85;;;9.90;99.90;;;;;;5097403;28;20031;-29
2023/10/30 03:48:30;;;;;;;7.80;1.88;;;9.90;99.90;;;;;;5096463;28;20031;-30
2023/10/30 03:50:56;;;;;;;8.45;2.17;;;9.90;99.90;;;;;;5096403;28;20035;-30
2023/10/30 03:53:22;;;;;;;8.00;2.10;;;9.90;99.90;;;;;;5105751;28;20058;-30
2023/10/30 03:55:47;;;;;;;8.23;3.38;;;9.90;99.90;;;;;;5092257;28;20040;-30
2023/10/30 03:58:13;;;;;;;3.22;1.88;;;9.90;99.90;;;;;;5094216;28;20506;-30
2023/10/30 04:03:56;;;;;;;9.32;2.40;;;9.80;99.90;;;;;;5092845;28;20052;-32
2023/10/30 04:06:22;;;;;;;10.20;2.28;;;9.80;99.90;;;;;;5092753;28;20044;-30
2023/10/30 04:08:48;;;;;;;9.55;2.80;;;9.80;99.90;;;;;;5092679;28;20452;-29
2023/10/30 04:11:17;;;;;;;7.97;2.05;;;9.80;99.90;;;;;;5092911;28;20114;-31
2023/10/30 04:13:44;;;;;;;7.38;1.92;;;9.80;99.90;;;;;;5094435;28;20036;-29
2023/10/30 04:16:11;;;;;;;7.47;2.15;;;9.70;99.90;;;;;;5076051;28;20044;-28
2023/10/30 04:18:38;;;;;;;9.63;2.30;;;9.70;99.90;;;;;;5092730;28;20395;-28
2023/10/30 04:21:05;;;;;;;8.27;2.20;;;9.80;99.90;;;;;;5092581;28;20043;-30
2023/10/30 04:23:30;;;;;;;8.90;2.08;;;9.70;99.90;;;;;;5075611;28;20101;-31
2023/10/30 04:25:56;;;;;;;5.95;2.17;;;9.70;99.90;;;;;;5092472;28;20067;-26
2023/10/30 04:28:22;;;;;;;9.52;2.50;;;9.70;99.90;;;;;;5092374;28;20461;-27
2023/10/30 04:30:47;;;;;;;8.60;1.70;;;9.70;99.90;;;;;;5075490;28;20050;-30
2023/10/30 04:33:13;;;;;;;6.22;1.92;;;9.70;99.90;;;;;;5092280;28;20399;-30
2023/10/30 04:35:39;;;;;;;8.35;2.28;;;9.70;99.90;;;;;;5092176;28;20046;-31
2023/10/30 04:38:05;;;;;;;7.93;2.33;;;9.70;99.90;;;;;;5092180;28;20079;-30
2023/10/30 04:40:30;;;;;;;7.00;2.10;;;9.70;99.90;;;;;;5075352;28;20056;-32
2023/10/30 04:42:56;;;;;;;6.57;2.40;;;9.70;99.90;;;;;;5075416;28;20127;-29
2023/10/30 04:45:22;;;;;;;9.68;2.40;;;9.60;99.90;;;;;;5092012;28;20039;-30
2023/10/30 04:47:47;;;;;;;4.65;2.33;;;9.60;99.90;;;;;;5075197;28;20071;-29
2023/10/30 04:50:13;;;;;;;9.65;2.30;;;9.60;99.90;;;;;;5092102;28;20035;-30
2023/10/30 04:52:39;;;;;;;4.82;2.05;;;9.50;99.90;;;;;;5075261;28;20067;-33
2023/10/30 04:55:05;;;;;;;5.78;1.70;;;9.50;99.90;;;;;;5066805;28;20051;-30
2023/10/30 04:57:30;;;;;;;4.47;2.63;;;9.60;99.90;;;;;;5072189;28;20063;-30
2023/10/30 04:59:56;;;;;;;9.05;2.45;;;9.50;99.90;;;;;;5055098;28;20050;-29
2023/10/30 05:02:23;;;;;;;10.52;2.13;;;9.50;99.90;;;;;;5071530;28;20045;-30
2023/10/30 05:04:50;;;;;;;12.40;2.45;;;9.60;99.90;;;;;;5038969;28;20040;-32
2023/10/30 05:07:16;;;;;;;11.02;2.50;;;9.60;99.90;;;;;;5071677;28;20425;-29
2023/10/30 05:09:42;;;;;;;9.85;2.63;;;9.60;99.90;;;;;;5054661;28;20368;-30
2023/10/30 05:12:07;;;;;;;7.07;2.47;;;9.50;99.90;;;;;;5071425;28;20511;-33
2023/10/30 05:14:33;;;;;;;7.40;2.65;;;9.50;99.90;;;;;;5071297;28;20059;-30
2023/10/30 05:16:59;;;;;;;7.30;2.08;;;9.50;99.90;;;;;;5071248;28;20092;-29
2023/10/30 05:19:25;;;;;;;7.65;2.17;;;9.50;99.90;;;;;;5054737;28;20049;-30
2023/10/30 05:21:51;;;;;;;6.82;1.90;;;9.50;99.90;;;;;;5071473;28;20534;-31
2023/10/30 05:24:16;;;;;;;16.88;3.42;;;9.40;99.90;;;;;;5054799;28;20048;-29
2023/10/30 05:26:42;;;;;;;9.20;2.28;;;9.40;99.90;;;;;;5071233;28;20047;-31
2023/10/30 05:29:08;;;;;;;8.45;2.38;;;9.40;99.90;;;;;;5055168;28;20042;-30
2023/10/30 05:31:34;;;;;;;8.05;2.20;;;9.40;99.90;;;;;;5077492;28;20036;-29
2023/10/30 05:34:00;;;;;;;9.35;2.40;;;9.40;99.90;;;;;;5052383;28;20043;-30
2023/10/30 05:36:26;;;;;;;10.05;2.25;;;9.40;99.90;;;;;;5061629;28;20036;-30
2023/10/30 05:38:51;;;;;;;10.32;2.35;;;9.40;99.90;;;;;;5072541;28;20175;-29
2023/10/30 05:41:17;;;;;;;10.10;2.20;;;9.40;99.90;;;;;;5080127;28;20051;-30
2023/10/30 05:43:43;;;;;;;6.63;1.95;;;9.40;99.90;;;;;;5083837;28;20127;-29
2023/10/30 05:46:08;;;;;;;11.90;2.50;;;9.40;99.90;;;;;;5077101;28;20072;-30
2023/10/30 05:48:34;;;;;;;7.10;2.50;;;9.40;99.90;;;;;;5078951;28;20048;-29
2023/10/30 05:51:00;;;;;;;10.85;2.65;;;9.40;99.90;;;;;;5061590;28;20048;-29
2023/10/30 05:53:26;;;;;;;9.73;2.58;;;9.40;99.90;;;;;;5064065;28;20031;-30
2023/10/30 05:55:51;;;;;;;11.20;2.60;;;9.40;99.90;;;;;;5073179;28;20037;-30
2023/10/30 05:58:17;;;;;;;14.80;3.17;;;9.40;99.90;;;;;;5073991;28;20130;-30
2023/10/30 06:00:43;;;;;;;6.07;2.38;;;9.50;99.90;;;;;;5062133;28;20044;-30
2023/10/30 06:03:09;;;;;;;7.95;2.33;;;9.50;99.90;;;;;;5079063;28;20368;-31
2023/10/30 06:05:35;;;;;;;10.82;2.22;;;9.50;99.90;;;;;;5077160;28;20380;-31
2023/10/30 06:08:01;;;;;;;14.07;2.95;;;9.50;99.90;;;;;;5072487;28;20576;-30
2023/10/30 06:10:28;;;;;;;6.38;2.28;;;9.60;99.90;;;;;;5055144;28;20180;-31
2023/10/30 06:12:53;;;;;;;11.57;2.63;;;9.60;99.90;;;;;;5072440;28;20362;-31
2023/10/30 06:15:19;;;;;;;9.50;2.45;;;9.50;99.90;;;;;;5054398;28;20036;-30
2023/10/30 06:17:45;;;;;;;9.70;3.00;;;9.60;99.90;;;;;;5075739;28;20056;-29
2023/10/30 06:20:15;;;;;;;6.20;2.20;;;9.60;99.90;;;;;;5077444;28;20123;-30
2023/10/30 06:22:42;;;;;;;10.23;2.92;;;9.60;99.90;;;;;;5063585;28;20049;-30
2023/10/30 06:25:09;;;;;;;9.85;2.60;;;9.70;99.90;;;;;;5056316;28;20442;-31
2023/10/30 06:27:35;;;;;;;8.20;2.75;;;9.70;99.90;;;;;;5076272;28;20044;-30
2023/10/30 06:30:00;;;;;;;12.60;2.75;;;9.70;99.90;;;;;;5087264;28;20048;-30
2023/10/30 06:32:26;;;;;;;8.50;2.40;;;9.70;99.90;;;;;;5075814;28;20392;-30
2023/10/30 06:34:53;;;;;;;11.10;2.83;;;9.70;99.90;;;;;;5062513;28;20102;-29
2023/10/30 06:37:19;;;;;;;8.52;2.35;;;9.70;99.90;;;;;;5057002;28;20513;-30
2023/10/30 06:39:45;;;;;;;12.10;2.60;;;9.70;99.90;;;;;;5078558;28;20092;-30
2023/10/30 06:42:11;;;;;;;10.43;2.15;;;9.70;99.90;;;;;;5079566;28;20126;-29
2023/10/30 06:44:36;;;;;;;9.50;2.53;;;9.70;99.90;;;;;;5079918;28;20123;-29
2023/10/30 06:47:02;;;;;;;11.77;2.47;;;9.70;99.90;;;;;;5064122;28;20044;-30
2023/10/30 06:49:28;;;;;;;5.75;1.92;;;9.70;99.90;;;;;;5082174;28;20631;-30
2023/10/30 06:51:57;;;;;;;6.95;2.78;;;9.70;99.90;;;;;;5080963;28;20082;-31
2023/10/30 06:54:22;;;;;;;11.07;2.50;;;9.70;99.90;;;;;;5079771;28;20066;-31
2023/10/30 06:56:48;;;;;;;11.77;3.58;;;9.70;99.90;;;;;;5077803;28;20040;-29
2023/10/30 06:59:14;;;;;;;9.73;2.45;;;9.70;99.90;;;;;;5080146;28;20032;-29
2023/10/30 07:01:45;;;;;;;9.52;2.40;;;9.70;99.90;;;;;;5079288;28;20110;-30
2023/10/30 07:04:14;;;;;;;9.93;2.40;;;9.80;99.90;;;;;;5066700;28;20040;-29
2023/10/30 07:06:42;;;;;;;8.77;2.40;;;9.70;99.90;;;;;;5082444;28;20045;-30
2023/10/30 07:09:08;;;;;;;7.50;2.28;;;9.80;99.90;;;;;;5060815;28;20047;-30
2023/10/30 07:11:35;;;;;;;11.25;2.90;;;9.80;99.90;;;;;;5060683;28;20490;-30
2023/10/30 07:14:04;;;;;;;10.32;2.50;;;9.80;99.90;;;;;;5054650;28;20072;-29
2023/10/30 07:16:30;;;;;;;4.85;2.30;;;9.90;99.90;;;;;;5064189;28;20396;-30
2023/10/30 07:18:59;;;;;;;9.93;2.72;;;9.90;99.90;;;;;;5078351;28;20041;-30
2023/10/30 07:21:26;;;;;;;8.85;2.65;;;9.90;99.90;;;;;;5080946;28;20042;-28
2023/10/30 07:23:52;;;;;;;8.40;2.47;;;10.00;99.90;;;;;;5059145;28;20067;-30
2023/10/30 07:26:18;;;;;;;9.73;3.20;;;10.00;99.90;;;;;;5080954;28;20052;-29
2023/10/30 07:28:44;;;;;;;12.45;2.80;;;10.00;99.90;;;;;;5064072;28;20079;-30
2023/10/30 07:31:10;;;;;;;6.85;2.53;;;10.00;99.90;;;;;;5057748;28;20028;-30
2023/10/30 07:33:36;;;;;;;8.93;2.72;;;10.10;99.90;;;;;;5057228;28;20040;-30
2023/10/30 07:36:03;;;;;;;9.45;2.60;;;10.10;99.90;;;;;;5059644;28;20071;-29
2023/10/30 07:38:29;;;;;;;10.15;2.65;;;10.20;99.90;;;;;;5073767;28;20051;-30
2023/10/30 07:40:55;;;;;;;9.52;2.88;;;10.30;99.90;;;;;;5064066;28;20407;-30
2023/10/30 07:43:23;;;;;;;10.40;3.30;;;10.40;99.90;;;;;;5079058;28;20121;-29
2023/10/30 07:45:50;;;;;;;7.47;2.50;;;10.40;99.90;;;;;;5068507;28;20044;-29
2023/10/30 07:48:16;;;;;;;6.75;2.40;;;10.50;99.90;;;;;;5074625;28;20052;-29
2023/10/30 07:50:45;;;;;;;7.75;2.70;;;10.60;99.90;;;;;;5072209;28;20120;-32
2023/10/30 07:53:11;;;;;;;11.52;2.63;;;10.70;99.90;;;;;;5066501;28;20495;-29
2023/10/30 07:55:38;;;;;;;9.48;3.05;;;10.70;99.90;;;;;;5065721;28;20067;-29
2023/10/30 07:58:08;;;;;;;8.80;2.67;;;10.70;99.90;;;;;;5061154;28;20036;-31
2023/10/30 08:00:34;;;;;;;7.10;2.78;;;10.80;99.90;;;;;;5075452;28;20044;-30
2023/10/30 08:03:00;;;;;;;9.32;3.00;;;10.80;99.90;;;;;;5056663;28;20048;-31
2023/10/30 08:05:33;;;;;;;9.50;2.47;;;11.00;99.90;;;;;;5054220;28;20044;-30
2023/10/30 08:08:04;;;;;;;15.10;2.95;;;11.20;99.90;;;;;;5072768;28;20043;-30
2023/10/30 08:10:30;;;;;;;6.35;2.25;;;11.50;99.90;;;;;;5074063;28;20128;-32
2023/10/30 08:12:55;;;;;;;9.45;2.60;;;11.90;99.90;;;;;;5075532;28;20044;-31
2023/10/30 08:15:21;;;;;;;8.05;2.35;;;12.40;99.90;;;;;;5074463;28;20044;-30
2023/10/30 08:17:47;;;;;;;8.90;2.20;;;12.80;99.90;;;;;;5073646;28;20095;-30
2023/10/30 08:20:13;;;;;;;8.25;2.10;;;13.30;99.90;;;;;;5061204;28;20135;-31
2023/10/30 08:22:39;;;;;;;8.18;2.50;;;13.50;99.90;;;;;;5076718;28;20131;-30
2023/10/30 08:25:05;;;;;;;7.57;2.25;;;13.70;99.90;;;;;;5076249;28;20039;-30
2023/10/30 08:27:30;;;;;;;5.70;2.22;;;14.00;99.90;;;;;;5075805;28;20044;-31
2023/10/30 08:29:56;;;;;;;7.82;2.30;;;14.30;99.90;;;;;;5078128;28;20044;-30
2023/10/30 08:32:22;;;;;;;6.57;2.22;;;14.60;99.90;;;;;;5074664;28;20495;-31
2023/10/30 08:34:48;;;;;;;7.00;2.55;;;14.90;99.90;;;;;;5072517;28;20039;-30
2023/10/30 08:37:13;;;;;;;9.20;2.20;;;15.10;99.90;;;;;;5060425;28;20051;-31
2023/10/30 08:39:39;;;;;;;8.55;2.20;;;15.30;99.90;;;;;;5077385;28;20052;-31
2023/10/30 08:42:05;;;;;;;6.78;1.77;;;15.40;99.90;;;;;;5077085;28;20048;-31
2023/10/30 08:44:32;;;;;;;7.55;2.25;;;15.50;99.90;;;;;;5064148;28;20096;-30
2023/10/30 08:46:58;;;;;;;5.95;2.20;;;15.70;99.90;;;;;;5056575;28;20055;-31
2023/10/30 08:49:25;;;;;;;10.20;2.05;;;15.80;99.90;;;;;;5081661;28;20407;-30
2023/10/30 08:51:50;;;;;;;5.60;1.88;;;16.00;99.90;;;;;;5075221;28;20510;-30
2023/10/30 08:54:16;;;;;;;8.27;2.70;;;16.10;99.90;;;;;;5078560;28;20123;-30
2023/10/30 08:56:43;;;;;;;6.97;1.92;;;16.40;99.90;;;;;;5074854;28;20135;-30
2023/10/30 08:59:09;;;;;;;8.15;2.47;;;16.50;99.90;;;;;;5070001;28;20044;-30
2023/10/30 09:01:35;;;;;;;9.98;2.25;;;16.40;99.90;;;;;;5082439;28;20063;-31
2023/10/30 09:04:03;;;;;;;6.47;1.80;;;16.30;99.90;;;;;;5078468;28;20047;-33
2023/10/30 09:06:29;;;;;;;4.82;1.73;;;16.40;99.90;;;;;;5065457;28;20098;-31
2023/10/30 09:08:54;;;;;;;8.27;2.20;;;16.60;99.90;;;;;;5077576;28;20507;-33
2023/10/30 09:11:20;;;;;;;9.75;2.92;;;16.80;99.90;;;;;;5087766;28;20074;-30
2023/10/30 09:13:46;;;;;;;9.63;2.97;;;17.00;99.90;;;;;;5075209;28;20033;-30
2023/10/30 09:16:12;;;;;;;11.27;2.55;;;17.30;99.90;;;;;;5072406;28;20040;-31
2023/10/30 09:18:41;;;;;;;5.22;2.00;;;17.40;99.90;;;;;;5057269;28;20040;-31
2023/10/30 09:21:12;;;;;;;6.38;2.05;;;17.50;99.90;;;;;;5073286;28;20402;-31
2023/10/30 09:23:41;;;;;;;5.80;2.10;;;17.70;99.90;;;;;;5078507;28;20437;-31
2023/10/30 09:26:07;;;;;;;14.18;2.47;;;17.50;99.90;;;;;;5056619;28;20043;-30
2023/10/30 09:28:33;;;;;;;8.25;2.40;;;17.40;99.90;;;;;;5072311;28;20036;-30
2023/10/30 09:30:59;;;;;;;11.88;2.92;;;17.10;99.90;;;;;;5058676;28;20032;-31
2023/10/30 09:33:24;;;;;;;16.38;3.65;;;16.70;99.90;;;;;;5072110;28;20487;-31
2023/10/30 09:35:50;;;;;;;9.40;2.30;;;16.40;99.90;;;;;;5078340;28;20426;-30
2023/10/30 09:38:15;;;;;;;12.40;2.70;;;16.10;99.90;;;;;;5078041;28;20040;-30
2023/10/30 09:40:43;;;;;;;549.60;99.60;;;16.10;99.90;;;;;;5073852;28;20135;-31
2023/10/30 09:43:09;;;;;;;85.97;14.65;;;16.20;99.90;;;;;;5055306;28;20252;-30
2023/10/30 09:45:37;;;;;;;26.50;5.38;;;16.30;99.90;;;;;;5082633;28;20048;-31
2023/10/30 09:48:04;;;;;;;14.23;3.92;;;16.50;99.90;;;;;;5078885;28;20086;-31
2023/10/30 09:50:31;;;;;;;9.80;2.20;;;16.40;99.90;;;;;;5083610;28;20479;-31
2023/10/30 09:52:57;;;;;;;10.43;2.00;;;16.30;99.90;;;;;;5073442;28;20080;-31
2023/10/30 09:55:24;;;;;;;9.65;2.38;;;15.90;99.90;;;;;;5078164;28;20104;-30
2023/10/30 09:57:51;;;;;;;78.10;13.27;;;15.60;99.90;;;;;;5071751;28;20052;-31
2023/10/30 10:00:18;;;;;;;12.73;3.05;;;15.30;99.90;;;;;;5055277;28;20311;-30
2023/10/30 10:02:44;;;;;;;11.38;2.33;;;15.10;99.90;;;;;;5062673;28;20050;-30
2023/10/30 10:05:13;;;;;;;12.80;2.60;;;15.00;99.90;;;;;;5081954;28;20086;-30
2023/10/30 10:07:40;;;;;;;7.40;2.58;;;14.90;99.90;;;;;;5068332;28;20409;-30
2023/10/30 10:10:08;;;;;;;10.88;2.50;;;14.80;99.90;;;;;;5041444;28;20036;-30
2023/10/30 10:12:35;;;;;;;8.80;2.67;;;14.80;99.90;;;;;;5072934;28;20115;-30
2023/10/30 10:15:06;;;;;;;6.05;2.20;;;14.80;99.90;;;;;;5080146;28;20115;-31
2023/10/30 10:17:51;;;;;;;8.07;2.60;;;14.80;99.90;;;;;;5070218;28;20045;-30
2023/10/30 10:20:21;;;;;;;10.18;2.38;;;14.90;99.90;;;;;;5077835;28;20598;-31
2023/10/30 10:22:47;;;;;;;9.73;2.60;;;15.00;99.90;;;;;;5083783;28;20127;-31
2023/10/30 10:25:18;;;;;;;9.65;2.28;;;15.40;99.90;;;;;;5070948;28;20123;-31
2023/10/30 10:27:44;;;;;;;6.43;1.90;;;15.50;99.90;;;;;;5054048;28;20053;-30
2023/10/30 10:30:10;;;;;;;8.70;2.38;;;15.40;99.90;;;;;;5055473;28;20127;-32
2023/10/30 10:32:37;;;;;;;7.50;2.10;;;15.30;99.90;;;;;;5067619;28;20079;-31
2023/10/30 10:35:05;;;;;;;9.10;2.20;;;15.10;99.90;;;;;;5076100;28;20068;-31
2023/10/30 10:37:32;;;;;;;9.93;2.05;;;15.10;99.90;;;;;;5072476;28;20056;-31
2023/10/30 10:39:59;;;;;;;6.50;2.28;;;15.00;99.90;;;;;;5062266;28;20121;-30
2023/10/30 10:42:26;;;;;;;8.48;2.15;;;14.90;99.90;;;;;;5075276;28;20095;-30
2023/10/30 10:44:53;;;;;;;5.82;2.10;;;14.90;99.90;;;;;;5075181;28;20075;-31
2023/10/30 10:47:20;;;;;;;9.20;3.05;;;14.90;99.90;;;;;;5055684;28;20479;-30
2023/10/30 10:49:50;;;;;;;10.75;2.50;;;14.90;99.90;;;;;;5052563;28;20076;-30
2023/10/30 10:52:17;;;;;;;7.28;2.28;;;14.90;99.90;;;;;;5080452;28;20494;-31
2023/10/30 10:54:46;;;;;;;6.40;2.50;;;14.80;99.90;;;;;;5075633;28;20182;-30
2023/10/30 10:57:18;;;;;;;14.23;2.50;;;14.80;99.90;;;;;;5077767;28;20763;-30
2023/10/30 10:59:53;;;;;;;11.30;3.03;;;14.60;99.90;;;;;;5056823;28;20475;-30
2023/10/30 11:02:27;;;;;;;6.80;2.38;;;14.60;99.90;;;;;;5082092;28;20385;-30
2023/10/30 11:04:54;;;;;;;6.28;2.65;;;14.60;99.90;;;;;;5073838;28;20044;-31
2023/10/30 11:07:35;;;;;;;6.40;2.13;;;14.70;99.90;;;;;;5084680;28;20101;-30
2023/10/30 11:10:09;;;;;;;6.63;1.98;;;14.80;99.90;;;;;;5085839;28;20036;-30
2023/10/30 11:12:44;;;;;;;7.13;2.50;;;14.90;99.90;;;;;;5081950;28;20557;-30
2023/10/30 11:15:20;;;;;;;7.43;2.17;;;14.90;99.90;;;;;;5062157;28;20322;-32
2023/10/30 11:18:21;;;;;;;9.20;2.67;;;14.90;99.90;;;;;;5073541;28;20079;-31
2023/10/30 11:20:53;;;;;;;9.32;2.45;;;14.90;99.90;;;;;;5059055;28;20048;-31
2023/10/30 11:23:48;;;;;;;7.07;2.17;;;14.90;99.90;;;;;;5070725;28;20047;-31
2023/10/30 11:26:44;;;;;;;6.88;1.92;;;14.90;99.90;;;;;;5062804;28;20449;-31
2023/10/30 11:29:23;;;;;;;9.00;2.40;;;14.90;99.90;;;;;;5089718;23;20044;-82
2023/10/30 11:32:16;;;;;;;8.45;2.22;;;15.00;99.90;;;;;;5027783;28;20069;-82
2023/10/30 11:34:43;;;;;;;9.00;3.13;;;15.10;99.90;;;;;;5029433;28;20041;-82
2023/10/30 11:37:14;;;;;;;6.57;2.92;;;15.20;99.90;;;;;;5047362;28;20460;-83
2023/10/30 11:39:41;;;;;;;9.77;2.10;;;15.30;99.90;;;;;;5028002;28;20557;-82
2023/10/30 11:42:34;;;;;;;7.82;2.33;;;15.40;99.90;;;;;;5031078;28;20064;-83
2023/10/30 11:45:23;;;;;;;7.63;2.25;;;15.50;99.90;;;;;;5046288;28;20045;-82
2023/10/30 11:47:57;;;;;;;5.93;2.22;;;15.60;99.90;;;;;;5052523;28;20076;-81
2023/10/30 11:50:28;;;;;;;9.63;2.30;;;15.70;99.90;;;;;;5043696;28;20128;-82
2023/10/30 11:52:55;;;;;;;8.50;2.60;;;15.70;99.90;;;;;;5031404;28;20069;-81
2023/10/30 11:55:22;;;;;;;12.88;2.20;;;15.60;99.90;;;;;;5054587;28;20037;-82
2023/10/30 11:57:48;;;;;;;9.57;2.60;;;15.60;99.90;;;;;;5048935;28;20519;-85
2023/10/30 12:00:15;;;;;;;8.57;2.42;;;15.60;99.90;;;;;;5054956;28;20044;-81
2023/10/30 12:02:41;;;;;;;10.48;2.65;;;15.50;99.90;;;;;;5032811;28;20128;-82
2023/10/30 12:05:09;;;;;;;7.30;1.90;;;15.50;99.90;;;;;;5073981;28;20417;-82
2023/10/30 12:07:34;;;;;;;10.75;2.22;;;15.70;99.90;;;;;;5050526;28;20034;-81
2023/10/30 12:10:02;;;;;;;6.47;2.20;;;15.90;99.90;;;;;;5051597;28;20059;-83
2023/10/30 12:12:29;;;;;;;9.05;2.33;;;16.10;99.90;;;;;;5039262;28;20040;-82
2023/10/30 12:14:59;;;;;;;19.20;6.55;;;16.40;99.90;;;;;;5050887;28;20051;-81
2023/10/30 12:17:26;;;;;;;9.38;4.15;;;16.50;99.90;;;;;;5035172;28;20037;-81
2023/10/30 12:19:52;;;;;;;13.20;5.80;;;16.60;99.90;;;;;;5050176;28;20102;-81
2023/10/30 12:22:19;;;;;;;9.30;2.63;;;16.80;99.90;;;;;;5054561;28;20048;-81
2023/10/30 12:24:46;;;;;;;7.32;2.20;;;17.00;99.90;;;;;;5038737;28;20040;-82
2023/10/30 12:27:22;;;;;;;7.78;2.28;;;17.30;99.90;;;;;;5050923;28;20089;-80
2023/10/30 12:29:53;;;;;;;15.65;8.85;;;17.30;99.90;;;;;;5054124;28;20071;-81
2023/10/30 12:32:19;;;;;;;8.65;2.42;;;17.30;99.90;;;;;;5039430;28;20041;-81
2023/10/30 12:34:45;;;;;;;7.05;2.13;;;17.30;99.90;;;;;;5035032;28;20041;-81
2023/10/30 12:37:23;;;;;;;7.43;2.38;;;17.30;99.90;;;;;;5054361;28;20099;-81
2023/10/30 12:40:09;;;;;;;6.72;2.08;;;17.10;99.90;;;;;;5059828;28;20040;-82
2023/10/30 12:42:46;;;;;;;10.13;2.15;;;17.20;99.90;;;;;;5052377;28;20049;-81
2023/10/30 12:45:13;;;;;;;8.52;2.13;;;17.20;99.90;;;;;;5038116;28;20056;-80
2023/10/30 12:47:40;;;;;;;7.22;2.20;;;17.20;99.90;;;;;;5055204;28;20591;-81
2023/10/30 12:50:07;;;;;;;5.97;2.42;;;17.20;99.90;;;;;;5056890;28;20041;-82
2023/10/30 12:52:33;;;;;;;9.60;2.20;;;17.10;99.90;;;;;;5058017;28;20093;-81
2023/10/30 12:54:59;;;;;;;10.63;2.42;;;17.10;99.90;;;;;;5054459;28;20034;-81